createdAt,value
2019-01-14T00:01:00.372Z,2.90
2019-01-14T00:03:50.223Z,2.80
2019-01-14T00:06:40.341Z,2.70
2019-01-14T00:09:31.327Z,2.50
2019-01-14T00:12:21.538Z,2.30
2019-01-14T00:15:11.758Z,2.30
2019-01-14T00:18:01.440Z,2.30
2019-01-14T00:20:51.181Z,2.10
2019-01-14T00:23:41.027Z,1.80
2019-01-14T00:26:31.020Z,1.70
2019-01-14T00:29:21.103Z,1.60
2019-01-14T00:32:10.767Z,1.60
2019-01-14T00:35:00.399Z,1.80
2019-01-14T00:37:50.441Z,1.80
2019-01-14T00:40:40.163Z,1.80
2019-01-14T00:43:29.942Z,1.80
2019-01-14T00:46:20.104Z,1.80
2019-01-14T00:49:10.062Z,1.60
2019-01-14T00:51:59.925Z,1.50
2019-01-14T00:54:49.561Z,1.80
2019-01-14T00:57:39.740Z,1.80
2019-01-14T01:00:29.478Z,1.70
2019-01-14T01:03:19.380Z,1.60
2019-01-14T01:06:09.201Z,1.70
2019-01-14T01:08:58.780Z,1.70
2019-01-14T01:11:48.642Z,1.70
2019-01-14T01:14:38.242Z,1.70
2019-01-14T01:17:28.180Z,1.50
2019-01-14T01:20:22.955Z,1.50
2019-01-14T01:23:12.355Z,1.90
2019-01-14T01:26:02.280Z,1.80
2019-01-14T01:28:52.363Z,1.80
2019-01-14T01:31:42.060Z,2.00
2019-01-14T01:34:32.240Z,2.40
2019-01-14T01:37:22.120Z,2.30
2019-01-14T01:40:21.109Z,2.60
2019-01-14T01:43:11.001Z,2.70
2019-01-14T01:46:00.689Z,2.80
2019-01-14T01:48:50.679Z,2.70
2019-01-14T01:51:40.802Z,2.80
2019-01-14T01:54:30.723Z,2.70
2019-01-14T01:57:20.501Z,2.60
2019-01-14T02:00:17.460Z,2.40
2019-01-14T02:03:07.589Z,2.20
2019-01-14T02:05:57.356Z,2.20
2019-01-14T02:08:47.017Z,2.20
2019-01-14T02:11:36.805Z,2.00
2019-01-14T02:14:26.487Z,1.80
2019-01-14T02:17:16.543Z,1.70
2019-01-14T02:20:07.991Z,1.90
2019-01-14T02:22:57.746Z,1.90
2019-01-14T02:25:47.789Z,1.80
2019-01-14T02:28:56.275Z,1.70
2019-01-14T02:31:46.439Z,1.80
2019-01-14T02:34:36.475Z,2.00
2019-01-14T02:37:26.140Z,1.90
2019-01-14T02:40:19.947Z,1.80
2019-01-14T02:43:28.575Z,1.90
2019-01-14T02:46:17.956Z,2.00
2019-01-14T02:49:07.933Z,1.80
2019-01-14T02:51:57.473Z,1.90
2019-01-14T02:54:55.605Z,2.20
2019-01-14T02:57:46.910Z,2.30
2019-01-14T03:00:36.457Z,2.10
2019-01-14T03:03:26.294Z,2.50
2019-01-14T03:06:16.290Z,2.20
2019-01-14T03:09:10.694Z,3.10
2019-01-14T03:11:59.959Z,2.60
2019-01-14T03:14:49.566Z,2.50
2019-01-14T03:17:39.463Z,2.70
2019-01-14T03:20:29.290Z,3.30
2019-01-14T03:23:19.302Z,3.10
2019-01-14T03:26:09.440Z,3.20
2019-01-14T03:28:59.164Z,3.10
2019-01-14T03:31:48.996Z,2.50
2019-01-14T03:34:38.533Z,2.50
2019-01-14T03:37:28.642Z,2.50
2019-01-14T03:40:19.657Z,2.80
2019-01-14T03:43:09.548Z,3.10
2019-01-14T03:45:59.279Z,3.00
2019-01-14T03:48:49.106Z,3.10
2019-01-14T03:51:38.712Z,3.20
2019-01-14T03:54:28.699Z,3.10
2019-01-14T03:57:18.010Z,3.40
2019-01-14T04:00:12.056Z,2.90
2019-01-14T04:03:01.485Z,3.10
2019-01-14T04:05:51.522Z,2.90
2019-01-14T04:08:41.381Z,2.60
2019-01-14T04:11:31.238Z,2.40
2019-01-14T04:14:21.219Z,2.60
2019-01-14T04:17:10.849Z,2.70
2019-01-14T04:20:00.493Z,2.60
2019-01-14T04:22:50.790Z,2.20
2019-01-14T04:25:40.703Z,2.20
2019-01-14T04:28:30.384Z,2.40
2019-01-14T04:31:20.024Z,2.10
2019-01-14T04:34:09.753Z,2.00
2019-01-14T04:36:59.769Z,2.00
2019-01-14T04:39:49.480Z,1.90
2019-01-14T04:42:39.430Z,2.00
2019-01-14T04:45:29.031Z,3.10
2019-01-14T04:48:19.129Z,3.10
2019-01-14T04:51:09.697Z,2.80
2019-01-14T04:53:59.398Z,2.90
2019-01-14T04:56:49.703Z,2.70
2019-01-14T04:59:39.450Z,2.50
2019-01-14T05:02:29.330Z,2.60
2019-01-14T05:05:20.536Z,2.60
2019-01-14T05:08:10.109Z,2.70
2019-01-14T05:11:00.031Z,2.90
2019-01-14T05:13:49.967Z,3.70
2019-01-14T05:16:39.956Z,3.10
2019-01-14T05:19:29.977Z,2.70
2019-01-14T05:22:20.033Z,2.90
2019-01-14T05:25:10.643Z,2.40
2019-01-14T05:28:00.221Z,2.60
2019-01-14T05:30:49.818Z,2.40
2019-01-14T05:33:39.461Z,2.30
2019-01-14T05:36:29.490Z,2.80
2019-01-14T05:39:19.326Z,2.70
2019-01-14T05:42:09.291Z,2.30
2019-01-14T05:44:59.223Z,2.20
2019-01-14T05:47:49.182Z,2.10
2019-01-14T05:50:39.135Z,1.90
2019-01-14T05:53:28.733Z,1.80
2019-01-14T05:56:19.936Z,2.00
2019-01-14T05:59:09.331Z,2.10
2019-01-14T06:02:15.236Z,2.00
2019-01-14T06:05:05.021Z,1.80
2019-01-14T06:07:55.048Z,1.60
2019-01-14T06:10:45.203Z,1.50
2019-01-14T06:13:34.797Z,1.60
2019-01-14T06:16:24.415Z,1.50
2019-01-14T06:19:14.246Z,1.40
2019-01-14T06:22:04.529Z,1.40
2019-01-14T06:24:54.775Z,1.30
2019-01-14T06:27:44.694Z,1.30
2019-01-14T06:30:35.642Z,1.30
2019-01-14T06:33:25.372Z,1.30
2019-01-14T06:36:15.051Z,1.30
2019-01-14T06:39:08.030Z,1.30
2019-01-14T06:41:57.723Z,1.40
2019-01-14T06:44:49.665Z,1.30
2019-01-14T06:47:39.552Z,1.30
2019-01-14T06:50:29.166Z,1.30
2019-01-14T06:53:19.042Z,1.40
2019-01-14T06:56:08.947Z,1.30
2019-01-14T06:59:00.790Z,1.30
2019-01-14T07:01:50.436Z,1.30
2019-01-14T07:04:40.318Z,1.30
2019-01-14T07:07:30.216Z,1.50
2019-01-14T07:10:26.971Z,1.60
2019-01-14T07:13:16.973Z,1.50
2019-01-14T07:16:06.719Z,1.50
2019-01-14T07:18:56.719Z,1.50
2019-01-14T07:21:46.946Z,1.50
2019-01-14T07:24:37.887Z,1.50
2019-01-14T07:27:27.399Z,1.60
2019-01-14T07:30:20.326Z,1.60
2019-01-14T07:33:09.923Z,1.60
2019-01-14T07:35:59.878Z,1.50
2019-01-14T07:38:49.651Z,1.60
2019-01-14T07:41:39.378Z,1.50
2019-01-14T07:44:29.436Z,1.40
2019-01-14T07:47:19.002Z,1.50
2019-01-14T07:50:10.500Z,1.50
2019-01-14T07:53:19.542Z,1.50
2019-01-14T07:56:09.596Z,1.50
2019-01-14T07:58:59.514Z,1.50
2019-01-14T08:01:49.228Z,1.50
2019-01-14T08:04:39.029Z,1.40
2019-01-14T08:07:28.925Z,1.40
2019-01-14T08:10:19.551Z,1.40
2019-01-14T08:13:09.719Z,1.40
2019-01-14T08:16:18.713Z,1.50
2019-01-14T08:19:08.622Z,1.50
2019-01-14T08:21:58.298Z,1.40
2019-01-14T08:24:48.265Z,1.50
2019-01-14T08:27:38.163Z,1.50
2019-01-14T08:30:28.114Z,1.50
2019-01-14T08:33:17.896Z,1.50
2019-01-14T08:36:07.882Z,1.40
2019-01-14T08:38:57.722Z,1.40
2019-01-14T08:41:54.017Z,1.40
2019-01-14T08:44:44.495Z,1.40
2019-01-14T08:47:33.977Z,1.40
2019-01-14T08:50:24.136Z,1.40
2019-01-14T08:53:13.667Z,1.40
2019-01-14T08:56:03.281Z,1.30
2019-01-14T08:58:53.195Z,1.30
2019-01-14T09:01:48.392Z,1.20
2019-01-14T09:04:38.259Z,1.20
2019-01-14T09:07:27.907Z,1.10
2019-01-14T09:10:26.884Z,1.10
2019-01-14T09:13:16.752Z,1.00
2019-01-14T09:16:06.377Z,1.00
2019-01-14T09:18:56.633Z,1.10
2019-01-14T09:22:05.733Z,1.00
2019-01-14T09:24:55.687Z,1.00
2019-01-14T09:27:45.432Z,1.10
2019-01-14T09:30:35.121Z,1.00
2019-01-14T09:33:24.743Z,1.00
2019-01-14T09:36:14.824Z,1.00
2019-01-14T09:39:08.735Z,0.90
2019-01-14T09:41:58.972Z,1.00
2019-01-14T09:44:48.892Z,1.00
2019-01-14T09:47:38.659Z,1.00
2019-01-14T09:50:28.317Z,1.00
2019-01-14T09:53:17.981Z,1.00
2019-01-14T09:56:07.689Z,1.00
2019-01-14T09:58:57.841Z,1.10
2019-01-14T10:01:47.791Z,1.00
2019-01-14T10:04:37.795Z,1.00
2019-01-14T10:07:27.769Z,1.00
2019-01-14T10:10:19.196Z,1.00
2019-01-14T10:13:08.672Z,1.00
2019-01-14T10:15:58.728Z,1.00
2019-01-14T10:19:08.306Z,1.00
2019-01-14T10:21:58.016Z,0.90
2019-01-14T10:24:47.767Z,0.90
2019-01-14T10:27:38.005Z,0.90
2019-01-14T10:30:27.924Z,0.90
2019-01-14T10:33:17.488Z,0.90
2019-01-14T10:36:08.122Z,0.90
2019-01-14T10:38:57.670Z,0.90
2019-01-14T10:41:48.638Z,0.90
2019-01-14T10:44:38.211Z,0.80
2019-01-14T10:47:46.900Z,0.90
2019-01-14T10:50:36.720Z,0.90
2019-01-14T10:53:26.430Z,0.90
2019-01-14T10:56:16.074Z,0.90
2019-01-14T10:59:06.098Z,0.90
2019-01-14T11:01:56.220Z,1.00
2019-01-14T11:05:05.887Z,1.00
2019-01-14T11:07:55.568Z,1.00
2019-01-14T11:10:45.087Z,1.00
2019-01-14T11:13:35.046Z,1.00
2019-01-14T11:16:24.728Z,1.00
2019-01-14T11:19:14.538Z,1.00
2019-01-14T11:22:04.128Z,1.00
2019-01-14T11:24:54.140Z,0.90
2019-01-14T11:27:43.906Z,0.90
2019-01-14T11:30:34.908Z,0.90
2019-01-14T11:33:24.797Z,0.90
2019-01-14T11:36:14.802Z,0.80
2019-01-14T11:39:13.969Z,0.80
2019-01-14T11:42:03.646Z,0.80
2019-01-14T11:44:53.353Z,0.80
2019-01-14T11:47:43.571Z,0.80
2019-01-14T11:50:33.639Z,0.80
2019-01-14T11:53:23.719Z,0.80
2019-01-14T11:56:13.358Z,0.80
2019-01-14T11:59:03.234Z,0.80
2019-01-14T12:01:52.759Z,0.80
2019-01-14T12:04:42.691Z,0.80
2019-01-14T12:07:32.442Z,0.80
2019-01-14T12:10:22.154Z,0.80
2019-01-14T12:13:11.543Z,0.90
2019-01-14T12:16:00.891Z,0.90
2019-01-14T12:18:50.831Z,0.90
2019-01-14T12:22:00.004Z,0.80
2019-01-14T12:24:49.795Z,0.80
2019-01-14T12:27:58.618Z,0.90
2019-01-14T12:30:48.804Z,0.90
2019-01-14T12:33:38.683Z,0.90
2019-01-14T12:36:30.270Z,0.90
2019-01-14T12:39:19.992Z,0.90
2019-01-14T12:42:10.192Z,0.90
2019-01-14T12:45:00.222Z,1.00
2019-01-14T12:47:51.183Z,1.00
2019-01-14T12:50:41.115Z,1.00
2019-01-14T12:53:31.056Z,1.00
2019-01-14T12:56:21.028Z,1.00
2019-01-14T12:59:10.748Z,1.00
2019-01-14T13:02:00.421Z,1.00
2019-01-14T13:04:50.162Z,0.90
2019-01-14T13:07:40.041Z,0.90
2019-01-14T13:10:30.019Z,1.00
2019-01-14T13:13:38.849Z,1.00
2019-01-14T13:16:28.757Z,1.00
2019-01-14T13:19:18.422Z,1.00
2019-01-14T13:22:08.341Z,1.00
2019-01-14T13:24:58.139Z,0.90
2019-01-14T13:27:47.843Z,0.90
2019-01-14T13:30:37.802Z,0.90
2019-01-14T13:33:27.522Z,0.90
2019-01-14T13:36:17.657Z,1.00
2019-01-14T13:39:12.101Z,1.00
2019-01-14T13:42:02.976Z,1.00
2019-01-14T13:44:52.914Z,1.00
2019-01-14T13:47:42.508Z,1.00
2019-01-14T13:50:32.345Z,1.00
2019-01-14T13:53:22.045Z,1.00
2019-01-14T13:56:13.190Z,0.90
2019-01-14T13:59:03.193Z,0.90
2019-01-14T14:01:53.033Z,0.90
2019-01-14T14:04:42.795Z,1.00
2019-01-14T14:07:32.764Z,1.00
2019-01-14T14:10:32.170Z,1.00
2019-01-14T19:49:43.122Z,1.95
2019-01-14T19:52:33.726Z,1.83
2019-01-14T19:55:22.651Z,1.26
2019-01-14T19:58:11.825Z,0.83
2019-01-14T20:01:00.692Z,0.71
2019-01-14T20:03:49.528Z,0.28
2019-01-14T20:06:39.553Z,0.32
2019-01-14T20:12:57.841Z,0.45
2019-01-14T20:15:25.809Z,0.60
2019-01-14T20:17:53.917Z,0.64
2019-01-14T20:20:21.768Z,0.57
2019-01-14T20:22:49.756Z,0.63
2019-01-14T20:25:17.713Z,0.40
2019-01-14T20:27:45.587Z,0.54
2019-01-14T20:30:19.208Z,0.17
2019-01-14T20:32:47.351Z,0.51
2019-01-14T20:35:17.385Z,0.53
2019-01-14T20:37:45.332Z,0.79
2019-01-14T20:40:13.670Z,0.36
2019-01-14T20:42:41.641Z,0.23
2019-01-14T20:45:10.287Z,0.24
2019-01-14T20:47:38.838Z,0.26
2019-01-14T20:50:08.416Z,0.42
2019-01-14T20:52:36.477Z,0.15
2019-01-14T20:55:05.075Z,0.60
2019-01-14T20:57:33.022Z,0.54
2019-01-14T21:00:01.003Z,0.82
2019-01-14T21:02:29.360Z,0.83
2019-01-14T21:04:57.364Z,0.22
2019-01-14T21:07:25.294Z,0.39
2019-01-14T21:09:53.095Z,0.30
2019-01-14T21:12:20.995Z,0.21
2019-01-14T21:14:49.830Z,0.06
2019-01-14T21:17:18.059Z,-0.01
2019-01-14T21:19:46.006Z,0.42
2019-01-14T21:22:13.791Z,0.20
2019-01-14T21:24:41.545Z,0.10
2019-01-14T21:27:09.230Z,-0.06
2019-01-14T21:29:37.147Z,-0.06
2019-01-14T21:32:04.834Z,-0.10
2019-01-14T21:34:32.649Z,0.12
2019-01-14T21:37:00.285Z,0.39
2019-01-14T21:39:28.056Z,0.39
2019-01-14T21:41:55.869Z,0.14
2019-01-14T21:44:23.521Z,0.05
2019-01-14T21:46:51.060Z,-0.13
2019-01-14T21:49:18.612Z,-0.09
2019-01-14T21:51:46.158Z,-0.01
2019-01-14T21:54:13.800Z,0.30
2019-01-14T21:56:41.225Z,0.05
2019-01-14T21:59:08.806Z,0.18
2019-01-14T22:01:36.343Z,0.16
2019-01-14T22:04:03.952Z,-0.04
2019-01-14T22:06:31.357Z,0.02
2019-01-14T22:08:58.704Z,0.02
2019-01-14T22:11:26.109Z,-0.07
2019-01-14T22:13:53.487Z,-0.07
2019-01-14T22:16:20.973Z,-0.10
2019-01-14T22:18:48.331Z,-0.15
2019-01-14T22:21:15.746Z,-0.16
2019-01-14T22:23:43.083Z,-0.24
2019-01-14T22:26:10.438Z,-0.14
2019-01-14T22:28:37.863Z,-0.13
2019-01-14T22:31:05.209Z,-0.16
2019-01-14T22:33:32.555Z,0.14
2019-01-14T22:35:59.901Z,0.15
2019-01-14T22:38:27.214Z,0.18
2019-01-14T22:40:54.586Z,-0.27
2019-01-14T22:43:21.880Z,-0.23
2019-01-14T22:45:49.252Z,-0.29
2019-01-14T22:48:16.683Z,-0.07
2019-01-14T22:50:44.065Z,0.50
2019-01-14T22:53:11.408Z,0.08
2019-01-14T22:55:38.801Z,-0.24
2019-01-14T22:58:06.149Z,-0.18
2019-01-14T23:01:04.676Z,-0.02
2019-01-14T23:03:32.003Z,0.22
2019-01-14T23:05:59.402Z,-0.26
2019-01-14T23:08:26.772Z,-0.19
2019-01-14T23:10:54.061Z,-0.23
2019-01-14T23:13:21.363Z,0.38
2019-01-14T23:15:48.743Z,0.42
2019-01-14T23:18:16.082Z,0.22
2019-01-14T23:20:43.420Z,-0.13
2019-01-14T23:23:10.795Z,-0.35
2019-01-14T23:25:38.151Z,-0.34
2019-01-14T23:28:05.499Z,-0.38
2019-01-14T23:30:32.910Z,-0.44
2019-01-14T23:33:00.242Z,-0.30
2019-01-14T23:35:27.557Z,-0.22
2019-01-14T23:37:55.182Z,-0.29
2019-01-14T23:40:22.478Z,-0.30
2019-01-14T23:42:49.812Z,-0.35
2019-01-14T23:45:18.196Z,-0.17
2019-01-14T23:47:46.476Z,-0.22
2019-01-14T23:50:14.003Z,-0.25
2019-01-14T23:52:41.362Z,-0.24
2019-01-14T23:55:08.775Z,-0.18
2019-01-14T23:57:36.064Z,-0.29
